Time;durP1;ratioP1;P1;durP2;ratioP2;P2;SDS_P1;SDS_P2;PMS_P1;PMS_P2;Temp;Humidity;BMP_temperature;BMP_pressure;BME280_temperature;BME280_humidity;BME280_pressure;Samples;Min_cycle;Max_cycle;Signal;HPM_P1;HPM_P2
2022/06/10 00:01:10;;;;;;;0.50;0.30;;;13.80;99.90;;;;;;5080056;28;20476;-81
2022/06/10 00:03:37;;;;;;;0.60;0.60;;;13.70;99.90;;;;;;5079489;28;20523;-81
2022/06/10 00:06:07;;;;;;;0.50;0.40;;;13.80;99.90;;;;;;5079934;28;20787;-82
2022/06/10 00:08:36;;;;;;;0.50;0.40;;;13.80;99.90;;;;;;5080961;28;20483;-81
2022/06/10 00:11:05;;;;;;;0.60;0.60;;;13.70;99.90;;;;;;5079290;28;20446;-80
2022/06/10 00:13:34;;;;;;;0.50;0.40;;;13.70;99.90;;;;;;5079767;28;20567;-82
2022/06/10 00:16:02;;;;;;;0.50;0.40;;;13.70;99.90;;;;;;5079259;28;20475;-81
2022/06/10 00:18:32;;;;;;;0.50;0.40;;;13.70;99.90;;;;;;5078308;28;20519;-82
2022/06/10 00:21:01;;;;;;;0.50;0.40;;;13.70;99.90;;;;;;5079610;28;20483;-81
2022/06/10 00:23:28;;;;;;;0.50;0.40;;;13.60;99.90;;;;;;5079259;28;20516;-79
2022/06/10 00:25:55;;;;;;;0.50;0.40;;;13.60;99.90;;;;;;5079330;28;20881;-80
2022/06/10 00:28:22;;;;;;;0.50;0.40;;;13.60;99.90;;;;;;5079187;28;20494;-82
2022/06/10 00:30:49;;;;;;;0.50;0.40;;;13.60;99.90;;;;;;5078365;28;20479;-81
2022/06/10 00:33:17;;;;;;;0.50;0.40;;;13.60;99.90;;;;;;5079359;28;20502;-82
2022/06/10 00:35:45;;;;;;;0.50;0.40;;;13.50;99.90;;;;;;5079054;28;20551;-81
2022/06/10 00:38:12;;;;;;;0.50;0.40;;;13.50;99.90;;;;;;5078937;28;20515;-82
2022/06/10 00:40:42;;;;;;;0.50;0.40;;;13.50;99.90;;;;;;5078889;28;20440;-80
2022/06/10 00:43:14;;;;;;;0.50;0.40;;;13.40;99.90;;;;;;5079225;28;20209;-82
2022/06/10 00:46:06;;;;;;;0.60;0.60;;;13.40;99.90;;;;;;5077321;28;20673;-82
2022/06/10 00:48:38;;;;;;;0.50;0.40;;;13.40;99.90;;;;;;5078707;28;20428;-81
2022/06/10 00:51:17;;;;;;;0.50;0.40;;;13.40;99.90;;;;;;5079069;28;20309;-81
2022/06/10 00:53:45;;;;;;;0.50;0.40;;;13.40;99.90;;;;;;5078346;28;20272;-81
2022/06/10 00:56:17;;;;;;;0.50;0.40;;;13.40;99.90;;;;;;5078479;28;20284;-81
2022/06/10 00:58:52;;;;;;;0.50;0.40;;;13.40;99.90;;;;;;5078713;28;20204;-82
2022/06/10 01:01:21;;;;;;;0.50;0.40;;;13.30;99.90;;;;;;5078801;28;20515;-81
2022/06/10 01:03:49;;;;;;;0.50;0.40;;;13.30;99.90;;;;;;5078262;28;20455;-81
2022/06/10 01:06:17;;;;;;;1.93;1.77;;;13.30;99.90;;;;;;5077710;28;20535;-82
2022/06/10 01:08:46;;;;;;;0.50;0.40;;;13.30;99.90;;;;;;5078104;28;20843;-81
2022/06/10 01:11:28;;;;;;;0.50;0.40;;;13.20;99.90;;;;;;5078355;28;20466;-82
2022/06/10 01:14:03;;;;;;;0.50;0.40;;;13.30;99.90;;;;;;5078340;28;20896;-82
2022/06/10 01:16:39;;;;;;;0.50;0.40;;;13.20;99.90;;;;;;5077330;28;20422;-81
2022/06/10 01:19:31;;;;;;;0.63;0.60;;;13.20;99.90;;;;;;5076732;28;20443;-81
2022/06/10 01:22:21;;;;;;;0.50;0.40;;;13.20;99.90;;;;;;5078098;28;20449;-82
2022/06/10 01:25:41;;;;;;;2.50;2.30;;;13.20;99.90;;;;;;5078195;28;20487;-81
2022/06/10 01:28:19;;;;;;;0.73;0.67;;;13.30;99.90;;;;;;4996673;28;20455;-82
2022/06/10 01:31:10;;;;;;;0.50;0.50;;;13.20;99.90;;;;;;4996169;28;20447;-81
2022/06/10 01:33:48;;;;;;;1.53;0.77;;;13.20;99.90;;;;;;4995837;28;20480;-81
2022/06/10 01:36:24;;;;;;;0.50;0.40;;;13.20;99.90;;;;;;4996120;28;20518;-80
2022/06/10 01:39:08;;;;;;;0.50;0.40;;;13.10;99.90;;;;;;4996531;28;20440;-81
2022/06/10 01:41:42;;;;;;;0.50;0.40;;;13.10;99.90;;;;;;4996260;28;20440;-81
2022/06/10 01:44:16;;;;;;;0.50;0.40;;;13.10;99.90;;;;;;4996186;28;20470;-81
2022/06/10 01:46:52;;;;;;;0.50;0.40;;;13.10;99.90;;;;;;4996333;28;20486;-81
2022/06/10 01:49:24;;;;;;;0.50;0.40;;;13.10;99.90;;;;;;4996170;28;20474;-81
2022/06/10 01:51:58;;;;;;;0.50;0.40;;;13.00;99.90;;;;;;4996964;28;20469;-80
2022/06/10 01:54:35;;;;;;;0.50;0.40;;;13.00;99.90;;;;;;4995940;28;20484;-82
2022/06/10 01:57:07;;;;;;;0.50;0.40;;;13.00;99.90;;;;;;4995833;28;20511;-81
2022/06/10 01:59:38;;;;;;;0.50;0.40;;;13.00;99.90;;;;;;5053792;28;20934;-81
2022/06/10 02:02:10;;;;;;;1.40;1.40;;;13.00;99.90;;;;;;5078890;28;20432;-81
2022/06/10 02:04:43;;;;;;;0.50;0.40;;;13.00;99.90;;;;;;5078452;28;20877;-81
2022/06/10 02:07:14;;;;;;;0.50;0.40;;;13.00;99.90;;;;;;5077496;28;20496;-81
2022/06/10 02:09:48;;;;;;;0.50;0.40;;;13.00;99.90;;;;;;5077115;28;20459;-81
2022/06/10 02:12:21;;;;;;;0.50;0.40;;;12.90;99.90;;;;;;5077813;28;20535;-81
2022/06/10 02:14:53;;;;;;;1.07;0.97;;;12.90;99.90;;;;;;5077815;28;20460;-80
2022/06/10 02:17:23;;;;;;;0.50;0.40;;;13.00;99.90;;;;;;5077613;28;20467;-81
2022/06/10 02:19:57;;;;;;;0.50;0.40;;;13.00;99.90;;;;;;5077700;28;20479;-81
2022/06/10 02:22:29;;;;;;;0.70;0.70;;;12.90;99.90;;;;;;5077687;28;20515;-81
2022/06/10 02:25:01;;;;;;;0.50;0.40;;;12.90;99.90;;;;;;5078264;28;20452;-81
2022/06/10 02:27:32;;;;;;;0.70;0.70;;;12.90;99.90;;;;;;5077199;28;20520;-82
2022/06/10 02:30:04;;;;;;;0.50;0.40;;;12.90;99.90;;;;;;5076552;28;20797;-80
2022/06/10 02:32:34;;;;;;;1.70;1.03;;;12.90;99.90;;;;;;5077156;28;20428;-81
2022/06/10 02:35:01;;;;;;;0.50;0.40;;;12.90;99.90;;;;;;5076868;28;20456;-80
2022/06/10 02:37:36;;;;;;;0.60;0.60;;;12.90;99.90;;;;;;5077477;28;20452;-81
2022/06/10 02:40:09;;;;;;;0.60;0.60;;;12.90;99.90;;;;;;5077888;28;20472;-81
2022/06/10 02:42:43;;;;;;;0.50;0.40;;;12.80;99.90;;;;;;5077112;28;20451;-81
2022/06/10 02:45:18;;;;;;;0.50;0.40;;;12.80;99.90;;;;;;5077613;28;20464;-82
2022/06/10 02:47:50;;;;;;;0.50;0.40;;;12.80;99.90;;;;;;5077237;28;20534;-82
2022/06/10 02:50:18;;;;;;;0.50;0.40;;;12.80;99.90;;;;;;5077046;28;20511;-81
2022/06/10 02:52:46;;;;;;;1.97;1.53;;;12.70;99.90;;;;;;5077170;28;20472;-81
2022/06/10 02:55:16;;;;;;;1.00;1.00;;;12.80;99.90;;;;;;5077168;28;20468;-81
2022/06/10 03:03:33;;;;;;;0.50;0.40;;;12.70;99.90;;;;;;5076934;28;20493;-80
2022/06/10 03:06:11;;;;;;;0.63;0.63;;;12.70;99.90;;;;;;5077340;28;20512;-80
2022/06/10 03:08:44;;;;;;;0.50;0.40;;;12.60;99.90;;;;;;5079319;28;20447;-80
2022/06/10 03:11:16;;;;;;;0.50;0.40;;;12.60;99.90;;;;;;5080734;28;20464;-81
2022/06/10 03:14:01;;;;;;;0.50;0.40;;;12.60;99.90;;;;;;5081561;28;20482;-81
2022/06/10 03:16:40;;;;;;;0.50;0.40;;;12.60;99.90;;;;;;5080320;28;20530;-82
2022/06/10 03:19:19;;;;;;;0.67;0.67;;;12.50;99.90;;;;;;5080325;28;20507;-82
2022/06/10 03:22:03;;;;;;;0.50;0.40;;;12.50;99.90;;;;;;5080529;28;20523;-82
2022/06/10 03:24:39;;;;;;;0.50;0.50;;;12.50;99.90;;;;;;5080870;28;20459;-80
2022/06/10 03:27:13;;;;;;;1.53;1.43;;;12.50;99.90;;;;;;5082116;28;20467;-79
2022/06/10 03:29:47;;;;;;;0.50;0.40;;;12.50;99.90;;;;;;5082671;28;20443;-79
2022/06/10 03:32:20;;;;;;;0.50;0.40;;;12.40;99.90;;;;;;5084469;28;20433;-81
2022/06/10 03:34:53;;;;;;;0.50;0.40;;;12.40;99.90;;;;;;5083097;28;20539;-79
2022/06/10 03:37:22;;;;;;;0.50;0.40;;;12.30;99.90;;;;;;5082622;28;20794;-80
2022/06/10 03:39:52;;;;;;;0.70;0.70;;;12.30;99.90;;;;;;5084329;28;20436;-79
2022/06/10 03:42:20;;;;;;;0.50;0.40;;;12.40;99.90;;;;;;5083592;28;20524;-81
2022/06/10 03:44:50;;;;;;;2.00;1.80;;;12.40;99.90;;;;;;5084239;28;20441;-79
2022/06/10 03:47:23;;;;;;;0.50;0.40;;;12.40;99.90;;;;;;5082035;28;20539;-80
2022/06/10 03:49:57;;;;;;;0.60;0.60;;;12.50;99.90;;;;;;5081698;28;20805;-79
2022/06/10 03:52:26;;;;;;;0.77;0.77;;;12.50;99.90;;;;;;5082592;28;20539;-81
2022/06/10 03:54:53;;;;;;;0.50;0.40;;;12.50;99.90;;;;;;5083709;28;20480;-80
2022/06/10 03:57:20;;;;;;;1.40;1.33;;;12.40;99.90;;;;;;5080272;28;20472;-80
2022/06/10 03:59:48;;;;;;;0.50;0.40;;;12.50;99.90;;;;;;5080316;28;20448;-80
2022/06/10 04:02:15;;;;;;;0.50;0.50;;;12.50;99.90;;;;;;5080324;28;20483;-80
2022/06/10 04:04:44;;;;;;;0.50;0.40;;;12.50;99.90;;;;;;5080158;28;20296;-79
2022/06/10 04:07:14;;;;;;;0.50;0.40;;;12.50;99.90;;;;;;5081098;28;20198;-82
2022/06/10 04:09:41;;;;;;;0.50;0.40;;;12.50;99.90;;;;;;5080889;28;20229;-79
2022/06/10 04:12:09;;;;;;;0.50;0.40;;;12.60;99.90;;;;;;5081277;28;20523;-80
2022/06/10 04:14:36;;;;;;;0.50;0.40;;;12.60;99.90;;;;;;5080259;28;20488;-80
2022/06/10 04:17:04;;;;;;;0.50;0.40;;;12.60;99.90;;;;;;5083881;28;20432;-81
2022/06/10 04:19:30;;;;;;;0.60;0.40;;;12.60;99.90;;;;;;5082961;28;20476;-80
2022/06/10 04:21:57;;;;;;;0.50;0.40;;;12.70;99.90;;;;;;5082129;28;20277;-80
2022/06/10 04:24:26;;;;;;;0.50;0.40;;;12.70;99.90;;;;;;5082210;28;20488;-79
2022/06/10 04:26:53;;;;;;;0.50;0.40;;;12.70;99.90;;;;;;5081038;28;20502;-80
2022/06/10 04:29:19;;;;;;;0.60;0.57;;;12.70;99.90;;;;;;5081415;28;20468;-82
2022/06/10 04:31:47;;;;;;;0.50;0.40;;;12.80;99.90;;;;;;5085340;28;20860;-80
2022/06/10 04:34:15;;;;;;;0.50;0.40;;;12.90;99.90;;;;;;5084839;28;20480;-81
2022/06/10 04:36:42;;;;;;;0.50;0.40;;;13.00;99.90;;;;;;5085569;28;20233;-80
2022/06/10 04:39:09;;;;;;;0.50;0.40;;;13.00;99.90;;;;;;5085068;28;20480;-79
2022/06/10 04:41:37;;;;;;;0.60;0.50;;;13.10;99.90;;;;;;5084260;28;20447;-80
2022/06/10 04:44:04;;;;;;;0.67;0.67;;;13.30;99.90;;;;;;5083111;28;20452;-80
2022/06/10 04:46:35;;;;;;;0.50;0.40;;;13.40;99.90;;;;;;5084654;28;20515;-80
2022/06/10 04:49:02;;;;;;;0.90;0.90;;;13.60;99.90;;;;;;5084304;28;20501;-81
2022/06/10 04:51:29;;;;;;;0.60;0.60;;;13.80;99.90;;;;;;5083122;28;20449;-82
2022/06/10 04:53:56;;;;;;;0.50;0.40;;;13.90;99.90;;;;;;5082912;28;20511;-80
2022/06/10 04:56:23;;;;;;;12.67;3.10;;;14.10;99.90;;;;;;5082605;28;20437;-81
2022/06/10 04:58:51;;;;;;;1.23;1.23;;;14.30;99.90;;;;;;5083175;28;20468;-82
2022/06/10 05:01:18;;;;;;;0.50;0.40;;;14.40;99.90;;;;;;5100283;22;20529;-79
2022/06/10 05:03:45;;;;;;;0.50;0.40;;;14.50;99.90;;;;;;5096410;28;20439;-81
2022/06/10 05:06:12;;;;;;;0.50;0.40;;;14.70;99.90;;;;;;5104017;28;20530;-78
2022/06/10 05:08:39;;;;;;;0.50;0.40;;;14.80;99.90;;;;;;5110238;28;20464;-79
2022/06/10 05:11:07;;;;;;;0.50;0.40;;;15.10;99.90;;;;;;5091759;28;20483;-82
2022/06/10 05:13:34;;;;;;;0.50;0.40;;;15.30;99.90;;;;;;5091989;28;20464;-79
2022/06/10 05:16:03;;;;;;;1.80;1.70;;;15.50;99.90;;;;;;5088064;28;20497;-79
2022/06/10 05:18:31;;;;;;;0.70;0.70;;;15.70;99.90;;;;;;5086578;28;20436;-79
2022/06/10 05:20:58;;;;;;;11.63;3.47;;;15.80;99.90;;;;;;5082887;28;20700;-80
2022/06/10 05:23:26;;;;;;;0.50;0.40;;;15.80;99.90;;;;;;5082533;28;20523;-78
2022/06/10 05:25:54;;;;;;;0.50;0.40;;;15.70;99.90;;;;;;5073646;28;20445;-78
2022/06/10 05:28:22;;;;;;;1.17;0.90;;;15.80;99.90;;;;;;5073682;28;20888;-78
2022/06/10 05:30:49;;;;;;;0.60;0.60;;;15.80;99.90;;;;;;5072474;28;20553;-78
2022/06/10 05:33:17;;;;;;;0.50;0.40;;;15.70;99.90;;;;;;5075133;28;20501;-79
2022/06/10 05:35:46;;;;;;;0.90;0.90;;;15.70;99.90;;;;;;5074729;28;20436;-78
2022/06/10 05:38:14;;;;;;;0.80;0.73;;;15.70;99.90;;;;;;5076385;28;20951;-79
2022/06/10 05:40:41;;;;;;;0.50;0.40;;;15.60;99.90;;;;;;5074515;28;20469;-79
2022/06/10 05:43:08;;;;;;;0.50;0.40;;;15.60;99.90;;;;;;5072738;28;20448;-79
2022/06/10 05:45:35;;;;;;;0.50;0.40;;;15.60;99.90;;;;;;5084928;28;20524;-79
2022/06/10 05:48:03;;;;;;;0.50;0.40;;;15.60;99.90;;;;;;5080308;28;20431;-77
2022/06/10 05:50:34;;;;;;;0.50;0.40;;;15.60;99.90;;;;;;5074550;28;20543;-79
2022/06/10 05:53:03;;;;;;;0.50;0.40;;;15.70;99.90;;;;;;5072833;28;20451;-78
2022/06/10 05:55:31;;;;;;;0.50;0.40;;;15.80;99.90;;;;;;5072281;28;20562;-78
2022/06/10 05:57:58;;;;;;;0.50;0.40;;;15.80;99.90;;;;;;5071179;28;20435;-78
2022/06/10 06:00:28;;;;;;;0.50;0.40;;;15.80;99.90;;;;;;5070789;28;20649;-78
2022/06/10 06:02:55;;;;;;;0.50;0.40;;;15.80;99.90;;;;;;5071326;28;20578;-75
2022/06/10 06:05:24;;;;;;;0.50;0.40;;;15.90;99.90;;;;;;5071144;28;20438;-79
2022/06/10 06:07:53;;;;;;;0.50;0.50;;;16.00;99.90;;;;;;5070417;28;20951;-78
2022/06/10 06:10:22;;;;;;;0.50;0.50;;;16.10;99.90;;;;;;5052272;28;20527;-78
2022/06/10 06:12:49;;;;;;;0.93;0.70;;;16.20;99.90;;;;;;5051843;28;20531;-78
2022/06/10 06:15:16;;;;;;;1.57;1.03;;;16.20;99.90;;;;;;5051453;28;20472;-78
2022/06/10 06:17:43;;;;;;;1.00;0.70;;;16.20;99.90;;;;;;5051254;28;20811;-78
2022/06/10 06:20:13;;;;;;;0.50;0.40;;;16.20;99.90;;;;;;5051470;28;20969;-78
2022/06/10 06:22:40;;;;;;;0.50;0.30;;;16.10;99.90;;;;;;5051282;28;20503;-79
2022/06/10 06:25:15;;;;;;;1.20;0.87;;;16.20;99.90;;;;;;5052105;28;20484;-77
2022/06/10 06:27:42;;;;;;;0.80;0.77;;;16.30;99.90;;;;;;5049427;28;20683;-77
2022/06/10 06:30:15;;;;;;;0.70;0.40;;;16.40;99.90;;;;;;5060886;28;20486;-76
2022/06/10 06:32:42;;;;;;;0.50;0.40;;;16.50;99.90;;;;;;5051338;28;20925;-77
2022/06/10 06:35:10;;;;;;;0.60;0.60;;;16.50;99.90;;;;;;5050376;28;20487;-77
2022/06/10 06:37:36;;;;;;;0.60;0.53;;;16.50;99.90;;;;;;5050797;28;20446;-76
2022/06/10 06:40:04;;;;;;;0.70;0.60;;;16.60;99.90;;;;;;5066471;28;20446;-77
2022/06/10 06:42:32;;;;;;;0.50;0.40;;;16.70;99.90;;;;;;5070578;28;20440;-77
2022/06/10 06:45:00;;;;;;;0.87;0.50;;;16.80;99.90;;;;;;5073482;28;20531;-76
2022/06/10 06:47:27;;;;;;;0.50;0.40;;;16.80;99.90;;;;;;5074088;28;20448;-78
2022/06/10 06:49:53;;;;;;;0.50;0.40;;;16.80;99.90;;;;;;5074334;28;20567;-77
2022/06/10 06:52:20;;;;;;;4.63;1.17;;;16.80;99.90;;;;;;5074243;28;20520;-77
2022/06/10 06:54:47;;;;;;;1.13;1.00;;;16.90;99.90;;;;;;5074222;28;20494;-78
2022/06/10 06:57:14;;;;;;;0.60;0.50;;;16.90;99.90;;;;;;5073971;28;20468;-74
2022/06/10 06:59:43;;;;;;;0.77;0.77;;;17.00;99.90;;;;;;5073714;28;20534;-77
2022/06/10 07:02:10;;;;;;;22.97;1.53;;;17.10;99.90;;;;;;5073551;28;21016;-78
2022/06/10 07:04:37;;;;;;;2.73;0.97;;;17.10;99.90;;;;;;5073886;28;20444;-78
2022/06/10 07:07:05;;;;;;;0.60;0.50;;;17.10;99.90;;;;;;5074445;28;20436;-77
2022/06/10 07:09:32;;;;;;;0.80;0.63;;;17.10;99.90;;;;;;5073789;28;20445;-78
2022/06/10 07:11:58;;;;;;;0.70;0.70;;;17.00;99.90;;;;;;5075048;28;20526;-78
2022/06/10 07:14:25;;;;;;;0.80;0.80;;;16.90;99.90;;;;;;5074974;28;20569;-78
2022/06/10 07:16:54;;;;;;;1.43;1.03;;;16.90;99.90;;;;;;5074181;28;20530;-78
2022/06/10 07:19:21;;;;;;;0.70;0.60;;;17.00;99.90;;;;;;5073879;28;20439;-78
2022/06/10 07:21:48;;;;;;;0.60;0.40;;;16.90;99.90;;;;;;5073361;28;20555;-78
2022/06/10 07:24:15;;;;;;;0.50;0.30;;;16.90;99.90;;;;;;5073962;28;20787;-78
2022/06/10 07:26:42;;;;;;;0.50;0.40;;;17.20;99.90;;;;;;5073665;28;21014;-78
2022/06/10 07:29:10;;;;;;;0.50;0.40;;;17.30;99.90;;;;;;5073426;28;20471;-78
2022/06/10 07:31:39;;;;;;;0.50;0.30;;;17.50;99.90;;;;;;5073628;28;20466;-78
2022/06/10 07:34:08;;;;;;;0.50;0.40;;;17.60;99.90;;;;;;5072976;28;20444;-78
2022/06/10 07:36:35;;;;;;;1.67;1.67;;;17.70;99.90;;;;;;5073269;28;20448;-77
2022/06/10 07:39:02;;;;;;;6.13;1.47;;;17.70;99.90;;;;;;5073238;28;20443;-78
2022/06/10 07:44:14;;;;;;;0.50;0.33;;;18.30;99.90;;;;;;5073686;28;20438;-78
2022/06/10 07:46:41;;;;;;;1.73;1.47;;;18.70;99.90;;;;;;5073260;28;20480;-78
2022/06/10 07:49:09;;;;;;;0.50;0.40;;;19.60;99.90;;;;;;5073541;28;20436;-78
2022/06/10 07:51:36;;;;;;;1.43;0.60;;;20.80;99.90;;;;;;5072940;28;20539;-78
2022/06/10 07:54:03;;;;;;;1.93;1.83;;;21.50;99.90;;;;;;5072013;28;20442;-78
2022/06/10 07:56:30;;;;;;;0.50;0.40;;;21.70;99.90;;;;;;5073644;28;20523;-77
2022/06/10 07:58:58;;;;;;;0.50;0.30;;;21.90;99.90;;;;;;5073242;28;20953;-78
2022/06/10 08:01:25;;;;;;;0.53;0.43;;;23.60;99.90;;;;;;5073401;28;20790;-79
2022/06/10 08:03:53;;;;;;;0.60;0.30;;;25.10;99.90;;;;;;5073147;28;20479;-79
2022/06/10 08:06:23;;;;;;;0.50;0.40;;;27.20;99.90;;;;;;5074089;28;20463;-79
2022/06/10 08:08:51;;;;;;;0.60;0.50;;;27.60;92.10;;;;;;5073111;28;20478;-79
2022/06/10 08:11:18;;;;;;;0.60;0.40;;;27.20;92.30;;;;;;5074339;28;20460;-78
2022/06/10 08:13:46;;;;;;;0.50;0.40;;;27.10;91.20;;;;;;5073454;28;20432;-79
2022/06/10 08:16:13;;;;;;;0.50;0.40;;;27.30;91.20;;;;;;5069543;28;20595;-78
2022/06/10 08:18:40;;;;;;;0.60;0.53;;;26.90;90.40;;;;;;5063196;28;20872;-78
2022/06/10 08:23:55;;;;;;;0.50;0.43;;;24.50;99.90;;;;;;5063179;28;20747;-78
2022/06/10 08:26:24;;;;;;;0.60;0.50;;;24.10;99.90;;;;;;5053563;28;20429;-79
2022/06/10 08:28:52;;;;;;;0.50;0.40;;;23.70;99.90;;;;;;5058089;28;20452;-78
2022/06/10 08:31:19;;;;;;;0.60;0.50;;;23.30;99.90;;;;;;5060858;28;20963;-80
2022/06/10 08:33:46;;;;;;;0.50;0.40;;;22.90;99.90;;;;;;5076155;28;20508;-78
2022/06/10 08:36:13;;;;;;;0.50;0.40;;;22.60;99.90;;;;;;5082112;28;20476;-78
2022/06/10 08:38:42;;;;;;;1.20;1.00;;;22.80;99.90;;;;;;5077152;28;20523;-78
2022/06/10 08:41:16;;;;;;;1.03;1.03;;;22.60;99.90;;;;;;5072624;28;20571;-78
2022/06/10 08:43:54;;;;;;;0.70;0.60;;;21.60;99.90;;;;;;5073187;28;20426;-78
2022/06/10 08:46:47;;;;;;;4.10;0.50;;;21.20;99.90;;;;;;5077359;28;20432;-79
2022/06/10 08:49:41;;;;;;;0.50;0.40;;;20.90;99.90;;;;;;5078978;28;20453;-79
2022/06/10 08:52:16;;;;;;;0.50;0.30;;;20.70;99.90;;;;;;5079202;28;20539;-79
2022/06/10 08:54:52;;;;;;;0.60;0.50;;;20.80;99.90;;;;;;5079259;28;20543;-79
2022/06/10 08:57:26;;;;;;;0.70;0.70;;;21.10;99.90;;;;;;5075422;28;20487;-79
2022/06/10 08:59:56;;;;;;;0.90;0.87;;;21.20;99.90;;;;;;5075035;28;20506;-77
2022/06/10 09:02:29;;;;;;;0.50;0.40;;;21.20;99.90;;;;;;5072513;28;20799;-79
2022/06/10 09:05:01;;;;;;;0.50;0.40;;;21.30;99.90;;;;;;5071788;28;20460;-79
2022/06/10 09:07:37;;;;;;;0.50;0.30;;;21.30;99.90;;;;;;5071203;28;20492;-78
2022/06/10 09:10:07;;;;;;;0.60;0.50;;;21.10;99.90;;;;;;5071727;28;21008;-78
2022/06/10 09:12:59;;;;;;;1.10;0.70;;;20.90;99.90;;;;;;5072570;28;20424;-79
2022/06/10 09:15:28;;;;;;;0.50;0.30;;;20.90;99.90;;;;;;5071614;28;20507;-79
2022/06/10 09:18:03;;;;;;;0.60;0.50;;;20.50;99.90;;;;;;5071548;28;20532;-78
2022/06/10 09:20:36;;;;;;;0.50;0.40;;;20.30;99.90;;;;;;5072329;28;20459;-78
2022/06/10 09:23:09;;;;;;;0.63;0.50;;;19.90;99.90;;;;;;5072452;28;20611;-78
2022/06/10 09:25:42;;;;;;;0.50;0.40;;;19.80;99.90;;;;;;5072669;28;20527;-77
2022/06/10 09:28:12;;;;;;;0.50;0.40;;;19.90;99.90;;;;;;5072037;28;20430;-78
2022/06/10 09:30:46;;;;;;;0.50;0.40;;;19.80;99.90;;;;;;5071009;28;20593;-78
2022/06/10 09:33:21;;;;;;;0.50;0.40;;;19.70;99.90;;;;;;5071708;28;20523;-78
2022/06/10 09:35:56;;;;;;;0.50;0.40;;;19.70;99.90;;;;;;5071423;28;21022;-78
2022/06/10 09:38:38;;;;;;;0.63;0.50;;;19.50;99.90;;;;;;5071177;28;20535;-77
2022/06/10 09:41:12;;;;;;;0.50;0.30;;;19.70;99.90;;;;;;5071183;28;20463;-78
2022/06/10 09:44:03;;;;;;;0.73;0.73;;;19.70;99.90;;;;;;5071326;28;20527;-78
2022/06/10 09:46:48;;;;;;;0.50;0.30;;;19.80;99.90;;;;;;5071110;28;20511;-78
2022/06/10 09:49:30;;;;;;;0.50;0.30;;;20.00;99.90;;;;;;5071448;28;20455;-77
2022/06/10 09:52:17;;;;;;;0.60;0.40;;;19.80;99.90;;;;;;5071613;28;20471;-78
2022/06/10 09:55:16;;;;;;;0.50;0.30;;;20.20;99.90;;;;;;5071409;28;20523;-78
2022/06/10 09:58:30;;;;;;;0.50;0.40;;;20.60;99.90;;;;;;5070876;28;21022;-77
2022/06/10 10:01:05;;;;;;;0.50;0.33;;;21.00;99.90;;;;;;5065946;28;20476;-77
2022/06/10 10:04:10;;;;;;;0.50;0.30;;;21.60;99.90;;;;;;5070905;28;20436;-78
2022/06/10 10:06:43;;;;;;;0.50;0.40;;;22.00;99.90;;;;;;5072212;28;20445;-78
2022/06/10 10:09:21;;;;;;;0.50;0.40;;;22.20;99.90;;;;;;5072216;28;20423;-78
2022/06/10 10:12:04;;;;;;;0.60;0.40;;;22.60;99.90;;;;;;5072080;28;20464;-78
2022/06/10 10:14:40;;;;;;;0.60;0.40;;;23.10;99.90;;;;;;5072147;28;20531;-78
2022/06/10 10:17:27;;;;;;;0.50;0.40;;;23.10;99.90;;;;;;5073265;28;20467;-79
2022/06/10 10:20:03;;;;;;;0.50;0.30;;;23.50;99.90;;;;;;5074774;28;20897;-77
2022/06/10 10:23:01;;;;;;;0.50;0.40;;;24.20;99.90;;;;;;5075291;28;20499;-78
2022/06/10 10:25:30;;;;;;;0.50;0.40;;;24.70;99.90;;;;;;5075352;28;20845;-78
2022/06/10 10:27:57;;;;;;;0.50;0.33;;;24.40;99.90;;;;;;5074667;28;20450;-77
2022/06/10 10:30:31;;;;;;;0.50;0.40;;;24.50;99.90;;;;;;5075077;28;20498;-78
2022/06/10 10:33:04;;;;;;;0.50;0.40;;;25.20;99.90;;;;;;5074653;28;20438;-77
2022/06/10 10:35:34;;;;;;;0.50;0.30;;;25.70;99.90;;;;;;5075970;28;20466;-80
2022/06/10 10:38:04;;;;;;;0.60;0.60;;;25.60;99.90;;;;;;5075774;28;20540;-78
2022/06/10 10:40:39;;;;;;;0.50;0.30;;;25.80;99.90;;;;;;5075715;28;20554;-79
2022/06/10 10:43:12;;;;;;;0.50;0.40;;;25.60;99.90;;;;;;5074995;28;20440;-78
2022/06/10 10:45:51;;;;;;;0.50;0.40;;;25.10;99.90;;;;;;5074754;28;20508;-78
2022/06/10 10:48:22;;;;;;;0.50;0.40;;;25.40;99.90;;;;;;5075160;28;20530;-78
2022/06/10 10:50:58;;;;;;;0.90;0.87;;;26.00;99.90;;;;;;5077821;28;20488;-79
2022/06/10 10:53:30;;;;;;;0.50;0.30;;;26.40;99.90;;;;;;5075763;28;20527;-79
2022/06/10 10:56:00;;;;;;;0.50;0.30;;;26.70;99.90;;;;;;5074325;28;20865;-79
2022/06/10 10:58:31;;;;;;;0.50;0.40;;;27.00;98.00;;;;;;5074659;28;20539;-79
2022/06/10 11:01:01;;;;;;;0.50;0.30;;;27.50;95.30;;;;;;5134571;22;20527;-79
2022/06/10 11:03:32;;;;;;;0.50;0.30;;;27.20;94.00;;;;;;5078014;28;20491;-81
2022/06/10 11:06:01;;;;;;;0.50;0.30;;;27.40;94.00;;;;;;5096689;28;20519;-81
2022/06/10 11:08:32;;;;;;;0.50;0.30;;;27.20;93.50;;;;;;5104159;28;20439;-81
2022/06/10 11:11:17;;;;;;;0.93;0.90;;;27.30;95.30;;;;;;5092638;28;20455;-82
2022/06/10 11:13:55;;;;;;;9.83;0.80;;;27.90;91.80;;;;;;5083201;28;20412;-82
2022/06/10 11:16:43;;;;;;;0.50;0.50;;;27.50;91.50;;;;;;5079133;28;20543;-82
2022/06/10 11:19:42;;;;;;;0.50;0.30;;;27.70;92.50;;;;;;5078885;28;20981;-81
2022/06/10 11:22:15;;;;;;;0.50;0.40;;;28.70;89.70;;;;;;5083599;28;20479;-81
2022/06/10 11:24:44;;;;;;;0.50;0.30;;;28.40;85.60;;;;;;5081921;28;20420;-82
2022/06/10 11:27:32;;;;;;;0.50;0.40;;;28.40;87.90;;;;;;5080877;28;20520;-80
2022/06/10 11:30:15;;;;;;;0.50;0.30;;;28.90;84.70;;;;;;5081684;28;20424;-79
2022/06/10 11:32:52;;;;;;;0.70;0.53;;;28.80;80.40;;;;;;5083038;28;20464;-82
2022/06/10 11:35:28;;;;;;;1.00;0.80;;;27.60;84.30;;;;;;5084348;28;20428;-82
2022/06/10 11:37:58;;;;;;;0.50;0.30;;;27.10;88.20;;;;;;5088593;28;20452;-79
2022/06/10 11:40:28;;;;;;;0.50;0.30;;;27.20;86.70;;;;;;5086343;28;20446;-81
2022/06/10 11:43:02;;;;;;;2.67;0.83;;;27.20;89.00;;;;;;5087402;28;20563;-82
2022/06/10 11:45:33;;;;;;;0.50;0.40;;;27.60;92.00;;;;;;5082885;28;20487;-82
2022/06/10 11:48:05;;;;;;;1.87;1.77;;;27.20;89.80;;;;;;5086679;28;20428;-80
2022/06/10 11:50:42;;;;;;;0.50;0.30;;;27.40;90.10;;;;;;5087928;28;20519;-81
2022/06/10 11:53:18;;;;;;;0.57;0.47;;;27.00;89.20;;;;;;5085673;28;20475;-82
2022/06/10 11:55:47;;;;;;;1.07;0.60;;;26.60;91.30;;;;;;5087941;28;20924;-82
2022/06/10 12:01:09;;;;;;;0.50;0.40;;;27.20;90.50;;;;;;5085784;28;20447;-82
2022/06/10 12:03:43;;;;;;;0.90;0.50;;;27.50;88.30;;;;;;5082923;28;20432;-82
2022/06/10 12:06:18;;;;;;;0.60;0.50;;;27.60;87.90;;;;;;5083955;28;20954;-82
2022/06/10 12:08:50;;;;;;;0.50;0.30;;;27.00;86.40;;;;;;5081874;28;20439;-81
2022/06/10 12:11:36;;;;;;;1.87;1.77;;;26.30;90.60;;;;;;5081566;28;20510;-81
2022/06/10 12:14:16;;;;;;;2.07;1.97;;;25.80;92.20;;;;;;5081113;28;20507;-82
2022/06/10 12:16:46;;;;;;;0.83;0.83;;;26.00;93.50;;;;;;5081237;28;20546;-82
2022/06/10 12:19:22;;;;;;;0.50;0.40;;;26.00;94.20;;;;;;5081813;28;21078;-82
2022/06/10 12:21:50;;;;;;;0.50;0.40;;;26.00;95.80;;;;;;5080644;28;20980;-81
2022/06/10 12:24:20;;;;;;;0.50;0.40;;;25.90;95.80;;;;;;5079466;28;20439;-82
2022/06/10 12:26:52;;;;;;;0.50;0.30;;;26.40;95.60;;;;;;5078873;28;20433;-82
2022/06/10 12:29:25;;;;;;;0.50;0.40;;;26.50;94.10;;;;;;5080663;28;20431;-82
2022/06/10 12:32:03;;;;;;;0.50;0.30;;;26.60;93.20;;;;;;5080895;28;20467;-81
2022/06/10 12:34:58;;;;;;;0.87;0.57;;;26.30;92.50;;;;;;5083096;28;20451;-82
2022/06/10 12:37:37;;;;;;;0.60;0.40;;;26.90;92.00;;;;;;5081689;28;20552;-78
2022/06/10 12:40:09;;;;;;;0.60;0.50;;;27.00;90.00;;;;;;5081921;28;20440;-82
2022/06/10 12:42:42;;;;;;;0.50;0.30;;;26.70;91.60;;;;;;5081221;28;20836;-82
2022/06/10 12:45:19;;;;;;;0.50;0.33;;;26.80;92.60;;;;;;5081340;28;20499;-81
2022/06/10 12:47:47;;;;;;;10.40;1.53;;;26.90;91.30;;;;;;5081021;28;20455;-82
2022/06/10 12:50:21;;;;;;;0.67;0.50;;;26.00;92.00;;;;;;5081123;28;20468;-82
2022/06/10 12:53:14;;;;;;;0.60;0.40;;;25.70;96.20;;;;;;5081318;28;20545;-80
2022/06/10 12:55:48;;;;;;;1.43;0.50;;;25.40;96.80;;;;;;5081512;28;20511;-83
2022/06/10 12:58:41;;;;;;;0.67;0.67;;;25.70;99.90;;;;;;5081089;28;20464;-81
2022/06/10 13:01:21;;;;;;;0.60;0.50;;;25.70;99.90;;;;;;5081898;28;20538;-81
2022/06/10 13:03:49;;;;;;;0.77;0.77;;;26.30;98.90;;;;;;5081616;28;20446;-82
2022/06/10 13:06:48;;;;;;;0.50;0.40;;;25.80;94.90;;;;;;5081011;28;20484;-82
2022/06/10 13:09:28;;;;;;;0.50;0.40;;;25.60;97.10;;;;;;5082718;28;20436;-82
2022/06/10 13:11:56;;;;;;;0.50;0.40;;;25.00;99.90;;;;;;5081708;28;20491;-81
2022/06/10 13:14:39;;;;;;;0.60;0.60;;;24.50;99.90;;;;;;5080439;28;20440;-82
2022/06/10 13:17:25;;;;;;;0.50;0.40;;;24.70;99.90;;;;;;5081204;28;20452;-83
2022/06/10 13:20:18;;;;;;;0.60;0.57;;;25.60;99.90;;;;;;5081123;28;20440;-82
2022/06/10 13:22:45;;;;;;;0.60;0.50;;;25.50;99.90;;;;;;5072911;28;20488;-82
2022/06/10 13:25:27;;;;;;;0.50;0.30;;;25.20;99.90;;;;;;5079760;28;20447;-82
2022/06/10 13:27:55;;;;;;;0.57;0.40;;;25.10;99.90;;;;;;5080158;28;20454;-83